sensor_id;sensor_type;location;lat;lon;timestamp;temperature;humidity
9519;DHT22;4797;50.220;8.782;2024-03-06T00:01:46;7.50;99.80
9519;DHT22;4797;50.220;8.782;2024-03-06T00:04:14;7.50;99.80
9519;DHT22;4797;50.220;8.782;2024-03-06T00:06:45;7.50;99.80
9519;DHT22;4797;50.220;8.782;2024-03-06T00:09:14;7.50;99.80
9519;DHT22;4797;50.220;8.782;2024-03-06T00:11:42;7.50;99.80
9519;DHT22;4797;50.220;8.782;2024-03-06T00:14:10;7.40;99.80
9519;DHT22;4797;50.220;8.782;2024-03-06T00:16:42;7.40;99.80
9519;DHT22;4797;50.220;8.782;2024-03-06T00:19:10;7.40;99.80
9519;DHT22;4797;50.220;8.782;2024-03-06T00:21:38;7.40;99.80
9519;DHT22;4797;50.220;8.782;2024-03-06T00:24:07;7.40;99.80
9519;DHT22;4797;50.220;8.782;2024-03-06T00:26:36;7.40;99.80
9519;DHT22;4797;50.220;8.782;2024-03-06T00:29:08;7.30;99.80
9519;DHT22;4797;50.220;8.782;2024-03-06T00:31:37;7.30;99.80
9519;DHT22;4797;50.220;8.782;2024-03-06T00:34:05;7.20;99.80
9519;DHT22;4797;50.220;8.782;2024-03-06T00:36:34;7.20;99.80
9519;DHT22;4797;50.220;8.782;2024-03-06T00:39:01;7.10;99.80
9519;DHT22;4797;50.220;8.782;2024-03-06T00:41:31;7.10;99.80
9519;DHT22;4797;50.220;8.782;2024-03-06T00:44:00;7.00;99.80
9519;DHT22;4797;50.220;8.782;2024-03-06T00:46:28;7.00;99.80
9519;DHT22;4797;50.220;8.782;2024-03-06T00:48:56;7.00;99.80
9519;DHT22;4797;50.220;8.782;2024-03-06T00:51:24;6.90;99.80
9519;DHT22;4797;50.220;8.782;2024-03-06T00:54:06;6.90;99.80
9519;DHT22;4797;50.220;8.782;2024-03-06T00:56:37;6.90;99.80
9519;DHT22;4797;50.220;8.782;2024-03-06T00:59:07;7.00;99.80
9519;DHT22;4797;50.220;8.782;2024-03-06T01:01:35;7.00;99.80
9519;DHT22;4797;50.220;8.782;2024-03-06T01:04:04;7.00;99.80
9519;DHT22;4797;50.220;8.782;2024-03-06T01:06:32;7.10;99.80
9519;DHT22;4797;50.220;8.782;2024-03-06T01:09:00;7.10;99.80
9519;DHT22;4797;50.220;8.782;2024-03-06T01:11:28;7.10;99.80
9519;DHT22;4797;50.220;8.782;2024-03-06T01:13:56;7.10;99.80
9519;DHT22;4797;50.220;8.782;2024-03-06T01:16:25;7.10;99.80
9519;DHT22;4797;50.220;8.782;2024-03-06T01:18:53;7.00;99.80
9519;DHT22;4797;50.220;8.782;2024-03-06T01:21:21;7.00;99.80
9519;DHT22;4797;50.220;8.782;2024-03-06T01:23:59;7.00;99.80
9519;DHT22;4797;50.220;8.782;2024-03-06T01:26:27;6.90;99.80
9519;DHT22;4797;50.220;8.782;2024-03-06T01:28:56;6.90;99.80
9519;DHT22;4797;50.220;8.782;2024-03-06T01:31:25;6.90;99.80
9519;DHT22;4797;50.220;8.782;2024-03-06T01:33:56;6.80;99.80
9519;DHT22;4797;50.220;8.782;2024-03-06T01:36:24;6.70;99.80
9519;DHT22;4797;50.220;8.782;2024-03-06T01:38:52;6.60;99.80
9519;DHT22;4797;50.220;8.782;2024-03-06T01:41:20;6.50;99.80
9519;DHT22;4797;50.220;8.782;2024-03-06T01:43:48;6.40;99.80
9519;DHT22;4797;50.220;8.782;2024-03-06T01:46:16;6.30;99.80
9519;DHT22;4797;50.220;8.782;2024-03-06T01:48:48;6.30;99.80
9519;DHT22;4797;50.220;8.782;2024-03-06T01:51:16;6.20;99.80
9519;DHT22;4797;50.220;8.782;2024-03-06T01:53:44;6.10;99.80
9519;DHT22;4797;50.220;8.782;2024-03-06T01:56:12;6.10;99.80
9519;DHT22;4797;50.220;8.782;2024-03-06T01:58:45;6.00;99.80
9519;DHT22;4797;50.220;8.782;2024-03-06T02:01:14;6.00;99.80
9519;DHT22;4797;50.220;8.782;2024-03-06T02:03:46;5.90;99.80
9519;DHT22;4797;50.220;8.782;2024-03-06T02:06:15;6.00;99.80
9519;DHT22;4797;50.220;8.782;2024-03-06T02:08:46;6.00;99.80
9519;DHT22;4797;50.220;8.782;2024-03-06T02:11:14;6.00;99.80
9519;DHT22;4797;50.220;8.782;2024-03-06T02:13:49;6.10;99.80
9519;DHT22;4797;50.220;8.782;2024-03-06T02:16:20;6.10;99.80
9519;DHT22;4797;50.220;8.782;2024-03-06T02:18:52;6.20;99.80
9519;DHT22;4797;50.220;8.782;2024-03-06T02:21:22;6.20;99.80
9519;DHT22;4797;50.220;8.782;2024-03-06T02:23:51;6.30;99.80
9519;DHT22;4797;50.220;8.782;2024-03-06T02:26:19;6.30;99.80
9519;DHT22;4797;50.220;8.782;2024-03-06T02:28:47;6.40;99.80
9519;DHT22;4797;50.220;8.782;2024-03-06T02:31:17;6.40;99.80
9519;DHT22;4797;50.220;8.782;2024-03-06T02:33:45;6.40;99.80
9519;DHT22;4797;50.220;8.782;2024-03-06T02:36:14;6.50;99.80
9519;DHT22;4797;50.220;8.782;2024-03-06T02:38:44;6.50;99.80
9519;DHT22;4797;50.220;8.782;2024-03-06T02:41:13;6.50;99.80
9519;DHT22;4797;50.220;8.782;2024-03-06T02:43:42;6.50;99.80
9519;DHT22;4797;50.220;8.782;2024-03-06T02:46:11;6.60;99.80
9519;DHT22;4797;50.220;8.782;2024-03-06T02:48:39;6.60;99.80
9519;DHT22;4797;50.220;8.782;2024-03-06T02:51:07;6.60;99.80
9519;DHT22;4797;50.220;8.782;2024-03-06T02:53:34;6.60;99.80
9519;DHT22;4797;50.220;8.782;2024-03-06T02:56:04;6.60;99.80
9519;DHT22;4797;50.220;8.782;2024-03-06T02:58:35;6.60;99.80
9519;DHT22;4797;50.220;8.782;2024-03-06T03:01:03;6.60;99.80
9519;DHT22;4797;50.220;8.782;2024-03-06T03:03:31;6.50;99.80
9519;DHT22;4797;50.220;8.782;2024-03-06T03:05:59;6.50;99.80
9519;DHT22;4797;50.220;8.782;2024-03-06T03:08:27;6.40;99.80
9519;DHT22;4797;50.220;8.782;2024-03-06T03:10:55;6.40;99.80
9519;DHT22;4797;50.220;8.782;2024-03-06T03:13:25;6.30;99.80
9519;DHT22;4797;50.220;8.782;2024-03-06T03:15:53;6.30;99.80
9519;DHT22;4797;50.220;8.782;2024-03-06T03:18:21;6.30;99.80
9519;DHT22;4797;50.220;8.782;2024-03-06T03:20:48;6.30;99.80
9519;DHT22;4797;50.220;8.782;2024-03-06T03:23:17;6.30;99.80
9519;DHT22;4797;50.220;8.782;2024-03-06T03:25:48;6.30;99.80
9519;DHT22;4797;50.220;8.782;2024-03-06T03:28:17;6.30;99.80
9519;DHT22;4797;50.220;8.782;2024-03-06T03:30:46;6.30;99.80
9519;DHT22;4797;50.220;8.782;2024-03-06T03:33:14;6.20;99.80
9519;DHT22;4797;50.220;8.782;2024-03-06T03:35:42;6.20;99.80
9519;DHT22;4797;50.220;8.782;2024-03-06T03:38:10;6.20;99.80
9519;DHT22;4797;50.220;8.782;2024-03-06T03:40:38;6.10;99.80
9519;DHT22;4797;50.220;8.782;2024-03-06T03:43:06;6.10;99.80
9519;DHT22;4797;50.220;8.782;2024-03-06T03:45:34;6.10;99.80
9519;DHT22;4797;50.220;8.782;2024-03-06T03:48:05;6.10;99.80
9519;DHT22;4797;50.220;8.782;2024-03-06T03:50:33;6.10;99.80
9519;DHT22;4797;50.220;8.782;2024-03-06T03:53:01;6.10;99.80
9519;DHT22;4797;50.220;8.782;2024-03-06T03:55:29;6.10;99.80
9519;DHT22;4797;50.220;8.782;2024-03-06T03:57:57;6.10;99.80
9519;DHT22;4797;50.220;8.782;2024-03-06T04:00:25;6.10;99.80
9519;DHT22;4797;50.220;8.782;2024-03-06T04:02:53;6.10;99.80
9519;DHT22;4797;50.220;8.782;2024-03-06T04:05:25;6.20;99.80
9519;DHT22;4797;50.220;8.782;2024-03-06T04:07:53;6.10;99.80
9519;DHT22;4797;50.220;8.782;2024-03-06T04:10:21;6.10;99.80
9519;DHT22;4797;50.220;8.782;2024-03-06T04:12:49;6.10;99.80
9519;DHT22;4797;50.220;8.782;2024-03-06T04:15:16;6.10;99.80
9519;DHT22;4797;50.220;8.782;2024-03-06T04:17:45;6.10;99.80
9519;DHT22;4797;50.220;8.782;2024-03-06T04:20:13;6.10;99.80
9519;DHT22;4797;50.220;8.782;2024-03-06T04:22:44;6.00;99.80
9519;DHT22;4797;50.220;8.782;2024-03-06T04:25:13;6.00;99.80
9519;DHT22;4797;50.220;8.782;2024-03-06T04:27:41;6.00;99.80
9519;DHT22;4797;50.220;8.782;2024-03-06T04:30:09;6.00;99.80
9519;DHT22;4797;50.220;8.782;2024-03-06T04:32:37;6.00;99.80
9519;DHT22;4797;50.220;8.782;2024-03-06T04:35:07;6.00;99.80
9519;DHT22;4797;50.220;8.782;2024-03-06T04:37:36;6.00;99.80
9519;DHT22;4797;50.220;8.782;2024-03-06T04:40:06;6.00;99.80
9519;DHT22;4797;50.220;8.782;2024-03-06T04:42:35;6.00;99.80
9519;DHT22;4797;50.220;8.782;2024-03-06T04:45:04;6.00;99.80
9519;DHT22;4797;50.220;8.782;2024-03-06T04:47:36;6.00;99.80
9519;DHT22;4797;50.220;8.782;2024-03-06T04:50:08;6.00;99.80
9519;DHT22;4797;50.220;8.782;2024-03-06T04:52:37;6.00;99.80
9519;DHT22;4797;50.220;8.782;2024-03-06T04:55:08;5.90;99.80
9519;DHT22;4797;50.220;8.782;2024-03-06T04:57:38;5.90;99.80
9519;DHT22;4797;50.220;8.782;2024-03-06T05:00:08;5.90;99.80
9519;DHT22;4797;50.220;8.782;2024-03-06T05:02:37;5.90;99.80
9519;DHT22;4797;50.220;8.782;2024-03-06T05:05:22;5.90;99.80
9519;DHT22;4797;50.220;8.782;2024-03-06T05:08:09;5.80;99.80
9519;DHT22;4797;50.220;8.782;2024-03-06T05:10:56;5.80;99.80
9519;DHT22;4797;50.220;8.782;2024-03-06T05:13:42;5.80;99.80
9519;DHT22;4797;50.220;8.782;2024-03-06T05:16:27;5.80;99.80
9519;DHT22;4797;50.220;8.782;2024-03-06T05:19:13;5.80;99.80
9519;DHT22;4797;50.220;8.782;2024-03-06T05:21:58;5.80;99.80
9519;DHT22;4797;50.220;8.782;2024-03-06T05:24:44;5.80;99.80
9519;DHT22;4797;50.220;8.782;2024-03-06T05:27:31;5.80;99.80
9519;DHT22;4797;50.220;8.782;2024-03-06T05:30:17;5.80;99.80
9519;DHT22;4797;50.220;8.782;2024-03-06T05:33:02;5.80;99.80
9519;DHT22;4797;50.220;8.782;2024-03-06T05:35:48;5.80;99.80
9519;DHT22;4797;50.220;8.782;2024-03-06T05:38:33;5.80;99.80
9519;DHT22;4797;50.220;8.782;2024-03-06T05:41:19;5.90;99.80
9519;DHT22;4797;50.220;8.782;2024-03-06T05:44:06;5.90;99.80
9519;DHT22;4797;50.220;8.782;2024-03-06T05:46:51;5.90;99.80
9519;DHT22;4797;50.220;8.782;2024-03-06T05:49:36;5.90;99.80
9519;DHT22;4797;50.220;8.782;2024-03-06T05:52:22;5.80;99.80
9519;DHT22;4797;50.220;8.782;2024-03-06T05:55:08;5.80;99.80
9519;DHT22;4797;50.220;8.782;2024-03-06T05:57:54;5.60;99.80
9519;DHT22;4797;50.220;8.782;2024-03-06T06:00:36;5.60;99.80
9519;DHT22;4797;50.220;8.782;2024-03-06T06:03:05;5.50;99.80
9519;DHT22;4797;50.220;8.782;2024-03-06T06:05:33;5.50;99.80
9519;DHT22;4797;50.220;8.782;2024-03-06T06:08:03;5.40;99.80
9519;DHT22;4797;50.220;8.782;2024-03-06T06:10:32;5.50;99.80
9519;DHT22;4797;50.220;8.782;2024-03-06T06:13:00;5.50;99.80
9519;DHT22;4797;50.220;8.782;2024-03-06T06:15:32;5.60;99.80
9519;DHT22;4797;50.220;8.782;2024-03-06T06:18:01;5.70;99.80
9519;DHT22;4797;50.220;8.782;2024-03-06T06:20:29;5.80;99.80
9519;DHT22;4797;50.220;8.782;2024-03-06T06:22:57;5.90;99.80
9519;DHT22;4797;50.220;8.782;2024-03-06T06:25:25;6.00;99.80
9519;DHT22;4797;50.220;8.782;2024-03-06T06:27:53;6.10;99.80
9519;DHT22;4797;50.220;8.782;2024-03-06T06:30:21;6.10;99.80
9519;DHT22;4797;50.220;8.782;2024-03-06T06:32:49;6.20;99.80
9519;DHT22;4797;50.220;8.782;2024-03-06T06:35:19;6.30;99.80
9519;DHT22;4797;50.220;8.782;2024-03-06T06:37:46;6.30;99.80
9519;DHT22;4797;50.220;8.782;2024-03-06T06:40:14;6.30;99.80
9519;DHT22;4797;50.220;8.782;2024-03-06T06:42:47;6.40;99.80
9519;DHT22;4797;50.220;8.782;2024-03-06T06:45:17;6.40;99.80
9519;DHT22;4797;50.220;8.782;2024-03-06T06:47:46;6.40;99.80
9519;DHT22;4797;50.220;8.782;2024-03-06T06:50:14;6.50;99.80
9519;DHT22;4797;50.220;8.782;2024-03-06T06:52:43;6.50;99.80
9519;DHT22;4797;50.220;8.782;2024-03-06T06:55:11;6.50;99.80
9519;DHT22;4797;50.220;8.782;2024-03-06T06:57:39;6.50;99.80
9519;DHT22;4797;50.220;8.782;2024-03-06T07:00:08;6.60;99.80
9519;DHT22;4797;50.220;8.782;2024-03-06T07:02:40;6.60;99.80
9519;DHT22;4797;50.220;8.782;2024-03-06T07:05:09;6.60;99.80
9519;DHT22;4797;50.220;8.782;2024-03-06T07:07:37;6.60;99.80
9519;DHT22;4797;50.220;8.782;2024-03-06T07:10:07;6.60;99.80
9519;DHT22;4797;50.220;8.782;2024-03-06T07:12:36;6.60;99.80
9519;DHT22;4797;50.220;8.782;2024-03-06T07:15:05;6.60;99.80
9519;DHT22;4797;50.220;8.782;2024-03-06T07:17:33;6.60;99.80
9519;DHT22;4797;50.220;8.782;2024-03-06T07:20:02;6.60;99.80
9519;DHT22;4797;50.220;8.782;2024-03-06T07:22:32;6.60;99.80
9519;DHT22;4797;50.220;8.782;2024-03-06T07:25:00;6.70;99.80
9519;DHT22;4797;50.220;8.782;2024-03-06T07:27:30;6.90;99.80
9519;DHT22;4797;50.220;8.782;2024-03-06T07:29:58;7.00;99.80
9519;DHT22;4797;50.220;8.782;2024-03-06T07:32:26;7.20;99.80
9519;DHT22;4797;50.220;8.782;2024-03-06T07:34:54;7.40;99.80
9519;DHT22;4797;50.220;8.782;2024-03-06T07:37:22;7.50;99.80
9519;DHT22;4797;50.220;8.782;2024-03-06T07:39:50;7.70;99.80
9519;DHT22;4797;50.220;8.782;2024-03-06T07:42:20;7.80;99.80
9519;DHT22;4797;50.220;8.782;2024-03-06T07:44:49;7.90;99.80
9519;DHT22;4797;50.220;8.782;2024-03-06T07:47:17;8.00;99.80
9519;DHT22;4797;50.220;8.782;2024-03-06T07:49:45;8.10;99.80
9519;DHT22;4797;50.220;8.782;2024-03-06T07:52:13;8.10;99.80
9519;DHT22;4797;50.220;8.782;2024-03-06T07:54:41;8.20;99.80
9519;DHT22;4797;50.220;8.782;2024-03-06T07:57:09;8.20;99.80
9519;DHT22;4797;50.220;8.782;2024-03-06T07:59:37;8.10;99.80
9519;DHT22;4797;50.220;8.782;2024-03-06T08:02:06;8.10;99.80
9519;DHT22;4797;50.220;8.782;2024-03-06T08:04:35;8.00;99.80
9519;DHT22;4797;50.220;8.782;2024-03-06T08:07:03;8.00;99.80
9519;DHT22;4797;50.220;8.782;2024-03-06T08:09:31;7.90;99.80
9519;DHT22;4797;50.220;8.782;2024-03-06T08:11:59;7.90;99.80
9519;DHT22;4797;50.220;8.782;2024-03-06T08:14:27;7.90;99.80
9519;DHT22;4797;50.220;8.782;2024-03-06T08:16:55;7.90;99.80
9519;DHT22;4797;50.220;8.782;2024-03-06T08:19:25;8.00;99.80
9519;DHT22;4797;50.220;8.782;2024-03-06T08:21:53;8.00;99.80
9519;DHT22;4797;50.220;8.782;2024-03-06T08:24:21;8.00;99.80
9519;DHT22;4797;50.220;8.782;2024-03-06T08:26:49;8.10;99.80
9519;DHT22;4797;50.220;8.782;2024-03-06T08:29:17;8.00;99.80
9519;DHT22;4797;50.220;8.782;2024-03-06T08:31:45;8.00;99.80
9519;DHT22;4797;50.220;8.782;2024-03-06T08:34:13;8.00;99.80
9519;DHT22;4797;50.220;8.782;2024-03-06T08:36:44;8.00;99.80
9519;DHT22;4797;50.220;8.782;2024-03-06T08:39:13;7.90;99.80
9519;DHT22;4797;50.220;8.782;2024-03-06T08:41:43;8.20;99.80
9519;DHT22;4797;50.220;8.782;2024-03-06T08:44:11;8.20;99.80
9519;DHT22;4797;50.220;8.782;2024-03-06T08:46:39;8.40;99.80
9519;DHT22;4797;50.220;8.782;2024-03-06T08:49:07;8.40;99.80
9519;DHT22;4797;50.220;8.782;2024-03-06T08:51:37;8.40;99.80
9519;DHT22;4797;50.220;8.782;2024-03-06T08:54:06;8.40;99.80
9519;DHT22;4797;50.220;8.782;2024-03-06T08:56:40;8.40;99.80
9519;DHT22;4797;50.220;8.782;2024-03-06T08:59:10;8.40;99.80
9519;DHT22;4797;50.220;8.782;2024-03-06T09:01:38;8.40;99.80
9519;DHT22;4797;50.220;8.782;2024-03-06T09:04:06;8.40;99.80
9519;DHT22;4797;50.220;8.782;2024-03-06T09:06:35;8.50;99.80
9519;DHT22;4797;50.220;8.782;2024-03-06T09:09:03;8.60;99.80
9519;DHT22;4797;50.220;8.782;2024-03-06T09:11:33;8.70;99.80
9519;DHT22;4797;50.220;8.782;2024-03-06T09:14:01;8.70;99.80
9519;DHT22;4797;50.220;8.782;2024-03-06T09:16:31;8.70;99.80
9519;DHT22;4797;50.220;8.782;2024-03-06T09:18:59;8.80;99.80
9519;DHT22;4797;50.220;8.782;2024-03-06T09:21:27;8.90;99.80
9519;DHT22;4797;50.220;8.782;2024-03-06T09:23:55;9.00;99.80
9519;DHT22;4797;50.220;8.782;2024-03-06T09:26:23;9.00;99.80
9519;DHT22;4797;50.220;8.782;2024-03-06T09:28:52;9.00;99.80
9519;DHT22;4797;50.220;8.782;2024-03-06T09:31:20;9.10;99.80
9519;DHT22;4797;50.220;8.782;2024-03-06T09:33:48;9.20;99.80
9519;DHT22;4797;50.220;8.782;2024-03-06T09:36:16;9.20;99.80
9519;DHT22;4797;50.220;8.782;2024-03-06T09:38:44;9.20;99.80
9519;DHT22;4797;50.220;8.782;2024-03-06T09:41:13;9.10;99.80
9519;DHT22;4797;50.220;8.782;2024-03-06T09:43:41;9.10;99.80
9519;DHT22;4797;50.220;8.782;2024-03-06T09:46:12;9.30;99.80
9519;DHT22;4797;50.220;8.782;2024-03-06T09:48:46;9.50;99.80
9519;DHT22;4797;50.220;8.782;2024-03-06T09:51:14;9.80;99.80
9519;DHT22;4797;50.220;8.782;2024-03-06T09:53:42;9.90;99.80
9519;DHT22;4797;50.220;8.782;2024-03-06T09:56:11;10.00;99.80
9519;DHT22;4797;50.220;8.782;2024-03-06T09:58:40;10.10;99.80
9519;DHT22;4797;50.220;8.782;2024-03-06T10:01:09;9.90;99.80
9519;DHT22;4797;50.220;8.782;2024-03-06T10:03:40;10.00;99.80
9519;DHT22;4797;50.220;8.782;2024-03-06T10:06:08;10.00;99.80
9519;DHT22;4797;50.220;8.782;2024-03-06T10:08:42;10.00;99.80
9519;DHT22;4797;50.220;8.782;2024-03-06T10:11:11;10.10;99.80
9519;DHT22;4797;50.220;8.782;2024-03-06T10:13:39;10.30;99.80
9519;DHT22;4797;50.220;8.782;2024-03-06T10:16:07;10.50;99.80
9519;DHT22;4797;50.220;8.782;2024-03-06T10:18:37;10.70;99.80
9519;DHT22;4797;50.220;8.782;2024-03-06T10:21:08;10.90;99.80
9519;DHT22;4797;50.220;8.782;2024-03-06T10:23:37;10.90;99.80
9519;DHT22;4797;50.220;8.782;2024-03-06T10:26:07;11.10;99.80
9519;DHT22;4797;50.220;8.782;2024-03-06T10:28:36;11.30;99.80
9519;DHT22;4797;50.220;8.782;2024-03-06T10:31:05;11.50;99.80
9519;DHT22;4797;50.220;8.782;2024-03-06T10:33:35;11.80;99.80
9519;DHT22;4797;50.220;8.782;2024-03-06T10:36:05;12.00;99.80
9519;DHT22;4797;50.220;8.782;2024-03-06T10:38:36;12.10;99.80
9519;DHT22;4797;50.220;8.782;2024-03-06T10:41:08;12.40;99.80
9519;DHT22;4797;50.220;8.782;2024-03-06T10:43:42;13.00;99.80
9519;DHT22;4797;50.220;8.782;2024-03-06T10:46:13;13.30;99.80
9519;DHT22;4797;50.220;8.782;2024-03-06T10:48:42;13.20;99.80
9519;DHT22;4797;50.220;8.782;2024-03-06T10:51:13;12.80;99.80
9519;DHT22;4797;50.220;8.782;2024-03-06T10:53:44;12.90;99.80
9519;DHT22;4797;50.220;8.782;2024-03-06T10:56:13;12.70;99.80
9519;DHT22;4797;50.220;8.782;2024-03-06T10:58:43;12.60;99.80
9519;DHT22;4797;50.220;8.782;2024-03-06T11:01:11;12.80;99.80
9519;DHT22;4797;50.220;8.782;2024-03-06T11:03:42;12.90;99.80
9519;DHT22;4797;50.220;8.782;2024-03-06T11:06:10;13.10;99.80
9519;DHT22;4797;50.220;8.782;2024-03-06T11:08:38;13.00;99.80
9519;DHT22;4797;50.220;8.782;2024-03-06T11:11:24;13.10;99.80
9519;DHT22;4797;50.220;8.782;2024-03-06T11:13:54;13.10;99.80
9519;DHT22;4797;50.220;8.782;2024-03-06T11:16:28;13.30;99.80
9519;DHT22;4797;50.220;8.782;2024-03-06T11:19:14;13.20;99.80
9519;DHT22;4797;50.220;8.782;2024-03-06T11:21:48;13.00;99.80
9519;DHT22;4797;50.220;8.782;2024-03-06T11:24:20;12.60;99.80
9519;DHT22;4797;50.220;8.782;2024-03-06T11:26:54;12.50;99.80
9519;DHT22;4797;50.220;8.782;2024-03-06T11:29:23;12.60;99.80
9519;DHT22;4797;50.220;8.782;2024-03-06T11:32:07;13.40;99.80
9519;DHT22;4797;50.220;8.782;2024-03-06T11:34:36;13.90;99.80
9519;DHT22;4797;50.220;8.782;2024-03-06T11:37:05;13.60;99.80
9519;DHT22;4797;50.220;8.782;2024-03-06T11:39:37;13.00;99.80
9519;DHT22;4797;50.220;8.782;2024-03-06T11:42:07;12.50;99.80
9519;DHT22;4797;50.220;8.782;2024-03-06T11:44:36;12.50;99.80
9519;DHT22;4797;50.220;8.782;2024-03-06T11:47:06;12.60;99.80
9519;DHT22;4797;50.220;8.782;2024-03-06T11:49:36;12.50;99.80
9519;DHT22;4797;50.220;8.782;2024-03-06T11:52:06;12.50;99.80
9519;DHT22;4797;50.220;8.782;2024-03-06T11:54:35;12.90;99.80
9519;DHT22;4797;50.220;8.782;2024-03-06T11:57:07;13.30;99.80
9519;DHT22;4797;50.220;8.782;2024-03-06T11:59:37;13.40;99.80
9519;DHT22;4797;50.220;8.782;2024-03-06T12:02:06;13.50;99.80
9519;DHT22;4797;50.220;8.782;2024-03-06T12:04:37;13.20;99.80
9519;DHT22;4797;50.220;8.782;2024-03-06T12:07:06;13.00;99.80
9519;DHT22;4797;50.220;8.782;2024-03-06T12:09:37;13.00;99.80
9519;DHT22;4797;50.220;8.782;2024-03-06T12:12:11;12.80;99.80
9519;DHT22;4797;50.220;8.782;2024-03-06T12:14:40;12.90;99.80
9519;DHT22;4797;50.220;8.782;2024-03-06T12:17:12;13.00;99.80
9519;DHT22;4797;50.220;8.782;2024-03-06T12:19:42;13.20;99.80
9519;DHT22;4797;50.220;8.782;2024-03-06T12:22:11;13.30;99.80
9519;DHT22;4797;50.220;8.782;2024-03-06T12:24:39;13.20;99.80
9519;DHT22;4797;50.220;8.782;2024-03-06T12:27:08;13.00;99.80
9519;DHT22;4797;50.220;8.782;2024-03-06T12:29:37;12.80;99.80
9519;DHT22;4797;50.220;8.782;2024-03-06T12:32:16;12.40;99.80
9519;DHT22;4797;50.220;8.782;2024-03-06T12:34:56;12.20;99.80
9519;DHT22;4797;50.220;8.782;2024-03-06T12:37:28;12.00;99.80
9519;DHT22;4797;50.220;8.782;2024-03-06T12:40:02;11.70;99.80
9519;DHT22;4797;50.220;8.782;2024-03-06T12:42:32;11.70;99.80
9519;DHT22;4797;50.220;8.782;2024-03-06T12:45:01;11.70;99.80
9519;DHT22;4797;50.220;8.782;2024-03-06T12:47:30;11.80;99.80
9519;DHT22;4797;50.220;8.782;2024-03-06T12:49:58;11.80;99.80
9519;DHT22;4797;50.220;8.782;2024-03-06T12:52:27;11.90;99.80
9519;DHT22;4797;50.220;8.782;2024-03-06T12:54:56;11.80;99.80
9519;DHT22;4797;50.220;8.782;2024-03-06T12:57:35;11.80;99.80
9519;DHT22;4797;50.220;8.782;2024-03-06T13:00:07;11.90;99.80
9519;DHT22;4797;50.220;8.782;2024-03-06T13:02:42;12.00;99.80
9519;DHT22;4797;50.220;8.782;2024-03-06T13:05:11;12.30;99.80
9519;DHT22;4797;50.220;8.782;2024-03-06T13:07:40;12.40;99.80
9519;DHT22;4797;50.220;8.782;2024-03-06T13:10:10;12.90;99.80
9519;DHT22;4797;50.220;8.782;2024-03-06T13:12:38;13.20;99.80
9519;DHT22;4797;50.220;8.782;2024-03-06T13:15:08;13.40;99.80
9519;DHT22;4797;50.220;8.782;2024-03-06T13:17:36;13.80;99.80
9519;DHT22;4797;50.220;8.782;2024-03-06T13:20:07;13.70;99.80
9519;DHT22;4797;50.220;8.782;2024-03-06T13:22:38;13.40;99.80
9519;DHT22;4797;50.220;8.782;2024-03-06T13:25:07;13.10;99.80
9519;DHT22;4797;50.220;8.782;2024-03-06T13:27:35;12.80;99.80
9519;DHT22;4797;50.220;8.782;2024-03-06T13:30:03;12.60;99.80
9519;DHT22;4797;50.220;8.782;2024-03-06T13:32:33;12.30;99.80
9519;DHT22;4797;50.220;8.782;2024-03-06T13:35:01;12.20;99.80
9519;DHT22;4797;50.220;8.782;2024-03-06T13:37:29;12.30;99.80
9519;DHT22;4797;50.220;8.782;2024-03-06T13:39:57;12.40;99.80
9519;DHT22;4797;50.220;8.782;2024-03-06T13:42:27;12.60;99.80
9519;DHT22;4797;50.220;8.782;2024-03-06T13:44:55;12.60;99.80
9519;DHT22;4797;50.220;8.782;2024-03-06T13:47:23;12.70;99.80
9519;DHT22;4797;50.220;8.782;2024-03-06T13:49:54;12.80;99.80
9519;DHT22;4797;50.220;8.782;2024-03-06T13:52:22;12.60;99.80
9519;DHT22;4797;50.220;8.782;2024-03-06T13:54:50;12.60;99.80
9519;DHT22;4797;50.220;8.782;2024-03-06T13:57:19;12.60;99.80
9519;DHT22;4797;50.220;8.782;2024-03-06T13:59:45;12.40;99.80
9519;DHT22;4797;50.220;8.782;2024-03-06T14:02:14;12.30;99.80
9519;DHT22;4797;50.220;8.782;2024-03-06T14:04:42;12.30;99.80
9519;DHT22;4797;50.220;8.782;2024-03-06T14:07:11;12.30;99.80
9519;DHT22;4797;50.220;8.782;2024-03-06T14:09:40;12.30;99.80
9519;DHT22;4797;50.220;8.782;2024-03-06T14:12:08;12.20;99.80
9519;DHT22;4797;50.220;8.782;2024-03-06T14:14:36;12.10;99.80
9519;DHT22;4797;50.220;8.782;2024-03-06T14:17:04;12.10;99.80
9519;DHT22;4797;50.220;8.782;2024-03-06T14:19:32;11.90;99.80
9519;DHT22;4797;50.220;8.782;2024-03-06T14:22:00;11.70;99.80
9519;DHT22;4797;50.220;8.782;2024-03-06T14:24:33;11.60;99.80
9519;DHT22;4797;50.220;8.782;2024-03-06T14:27:01;11.60;99.80
9519;DHT22;4797;50.220;8.782;2024-03-06T14:29:29;11.70;99.80
9519;DHT22;4797;50.220;8.782;2024-03-06T14:31:57;11.80;99.80
9519;DHT22;4797;50.220;8.782;2024-03-06T14:34:25;11.80;99.80
9519;DHT22;4797;50.220;8.782;2024-03-06T14:36:53;12.00;99.80
9519;DHT22;4797;50.220;8.782;2024-03-06T14:39:21;12.10;99.80
9519;DHT22;4797;50.220;8.782;2024-03-06T14:41:52;12.20;99.80
9519;DHT22;4797;50.220;8.782;2024-03-06T14:44:20;12.20;99.80
9519;DHT22;4797;50.220;8.782;2024-03-06T14:46:48;12.30;99.80
9519;DHT22;4797;50.220;8.782;2024-03-06T14:49:16;12.30;99.80
9519;DHT22;4797;50.220;8.782;2024-03-06T14:51:44;12.20;99.80
9519;DHT22;4797;50.220;8.782;2024-03-06T14:54:12;12.00;99.80
9519;DHT22;4797;50.220;8.782;2024-03-06T14:56:40;12.00;99.80
9519;DHT22;4797;50.220;8.782;2024-03-06T14:59:10;11.80;99.80
9519;DHT22;4797;50.220;8.782;2024-03-06T15:01:38;11.70;99.80
9519;DHT22;4797;50.220;8.782;2024-03-06T15:04:06;11.50;99.80
9519;DHT22;4797;50.220;8.782;2024-03-06T15:06:34;11.40;99.80
9519;DHT22;4797;50.220;8.782;2024-03-06T15:09:02;11.40;99.80
9519;DHT22;4797;50.220;8.782;2024-03-06T15:11:31;11.30;99.80
9519;DHT22;4797;50.220;8.782;2024-03-06T15:13:59;11.30;99.80
9519;DHT22;4797;50.220;8.782;2024-03-06T15:16:29;11.30;99.80
9519;DHT22;4797;50.220;8.782;2024-03-06T15:18:58;11.40;99.80
9519;DHT22;4797;50.220;8.782;2024-03-06T15:21:26;11.60;99.80
9519;DHT22;4797;50.220;8.782;2024-03-06T15:23:54;11.70;99.80
9519;DHT22;4797;50.220;8.782;2024-03-06T15:26:22;11.80;99.80
9519;DHT22;4797;50.220;8.782;2024-03-06T15:28:50;11.70;99.80
9519;DHT22;4797;50.220;8.782;2024-03-06T15:31:19;11.70;99.80
9519;DHT22;4797;50.220;8.782;2024-03-06T15:33:49;11.60;99.80
9519;DHT22;4797;50.220;8.782;2024-03-06T15:36:18;11.60;99.80
9519;DHT22;4797;50.220;8.782;2024-03-06T15:38:46;11.40;99.80
9519;DHT22;4797;50.220;8.782;2024-03-06T15:41:14;11.30;99.80
9519;DHT22;4797;50.220;8.782;2024-03-06T15:43:42;11.20;99.80
9519;DHT22;4797;50.220;8.782;2024-03-06T15:46:10;11.20;99.80
9519;DHT22;4797;50.220;8.782;2024-03-06T15:48:38;11.10;99.80
9519;DHT22;4797;50.220;8.782;2024-03-06T15:51:08;11.00;99.80
9519;DHT22;4797;50.220;8.782;2024-03-06T15:53:36;10.90;99.80
9519;DHT22;4797;50.220;8.782;2024-03-06T15:56:04;10.80;99.80
9519;DHT22;4797;50.220;8.782;2024-03-06T15:58:32;10.70;99.80
9519;DHT22;4797;50.220;8.782;2024-03-06T16:01:00;10.70;99.80
9519;DHT22;4797;50.220;8.782;2024-03-06T16:03:31;10.60;99.80
9519;DHT22;4797;50.220;8.782;2024-03-06T16:05:59;10.60;99.80
9519;DHT22;4797;50.220;8.782;2024-03-06T16:08:42;10.70;99.80
9519;DHT22;4797;50.220;8.782;2024-03-06T16:11:10;10.70;99.80
9519;DHT22;4797;50.220;8.782;2024-03-06T16:13:38;10.60;99.80
9519;DHT22;4797;50.220;8.782;2024-03-06T16:16:06;10.60;99.80
9519;DHT22;4797;50.220;8.782;2024-03-06T16:18:35;10.50;99.80
9519;DHT22;4797;50.220;8.782;2024-03-06T16:21:04;10.40;99.80
9519;DHT22;4797;50.220;8.782;2024-03-06T16:23:32;10.40;99.80
9519;DHT22;4797;50.220;8.782;2024-03-06T16:26:01;10.30;99.80
9519;DHT22;4797;50.220;8.782;2024-03-06T16:28:29;10.20;99.80
9519;DHT22;4797;50.220;8.782;2024-03-06T16:30:57;10.20;99.80